sensor_id;sensor_type;location;lat;lon;timestamp;pressure;altitude;pressure_sealevel;temperature;humidity
52105;BME280;38103;42.776;23.112;2023-02-22T00:00:20;93939.31;;;8.64;45.22
52105;BME280;38103;42.776;23.112;2023-02-22T00:03:05;93929.66;;;8.39;45.68
52105;BME280;38103;42.776;23.112;2023-02-22T00:05:32;93941.88;;;8.14;46.45
52105;BME280;38103;42.776;23.112;2023-02-22T00:07:57;93933.69;;;7.85;47.35
52105;BME280;38103;42.776;23.112;2023-02-22T00:10:25;93932.63;;;7.67;47.41
52105;BME280;38103;42.776;23.112;2023-02-22T00:12:52;93944.00;;;7.61;47.79
52105;BME280;38103;42.776;23.112;2023-02-22T00:15:20;93946.06;;;7.59;47.99
52105;BME280;38103;42.776;23.112;2023-02-22T00:17:47;93939.66;;;7.48;47.98
52105;BME280;38103;42.776;23.112;2023-02-22T00:20:14;93944.97;;;7.41;48.31
52105;BME280;38103;42.776;23.112;2023-02-22T00:22:46;93948.25;;;7.36;48.49
52105;BME280;38103;42.776;23.112;2023-02-22T00:25:15;93948.53;;;7.28;48.86
52105;BME280;38103;42.776;23.112;2023-02-22T00:27:45;93899.22;;;6.91;49.46
52105;BME280;38103;42.776;23.112;2023-02-22T00:30:24;93932.72;;;7.02;50.09
52105;BME280;38103;42.776;23.112;2023-02-22T00:32:51;93928.78;;;6.86;50.76
52105;BME280;38103;42.776;23.112;2023-02-22T00:35:19;93939.97;;;6.75;50.97
52105;BME280;38103;42.776;23.112;2023-02-22T00:37:50;93936.19;;;6.64;51.50
52105;BME280;38103;42.776;23.112;2023-02-22T00:40:19;93914.44;;;6.43;51.39
52105;BME280;38103;42.776;23.112;2023-02-22T00:42:45;93928.53;;;6.55;51.37
52105;BME280;38103;42.776;23.112;2023-02-22T00:45:12;93878.97;;;6.26;51.27
52105;BME280;38103;42.776;23.112;2023-02-22T00:47:39;93923.28;;;6.55;51.30
52105;BME280;38103;42.776;23.112;2023-02-22T00:50:05;93917.66;;;6.52;51.76
52105;BME280;38103;42.776;23.112;2023-02-22T00:52:30;93914.66;;;6.41;52.02
52105;BME280;38103;42.776;23.112;2023-02-22T00:54:55;93915.31;;;6.30;52.54
52105;BME280;38103;42.776;23.112;2023-02-22T00:57:22;93872.41;;;5.97;52.84
52105;BME280;38103;42.776;23.112;2023-02-22T00:59:48;93922.19;;;6.24;53.10
52105;BME280;38103;42.776;23.112;2023-02-22T01:02:14;93914.09;;;6.32;52.58
52105;BME280;38103;42.776;23.112;2023-02-22T01:04:39;93895.13;;;6.30;52.32
52105;BME280;38103;42.776;23.112;2023-02-22T01:07:05;93910.38;;;6.47;52.14
52105;BME280;38103;42.776;23.112;2023-02-22T01:09:30;93901.84;;;6.58;51.56
52105;BME280;38103;42.776;23.112;2023-02-22T01:11:56;93898.97;;;6.67;51.10
52105;BME280;38103;42.776;23.112;2023-02-22T01:14:23;93900.56;;;6.75;51.13
52105;BME280;38103;42.776;23.112;2023-02-22T01:16:54;93887.03;;;6.71;50.78
52105;BME280;38103;42.776;23.112;2023-02-22T01:19:21;93899.91;;;6.79;51.02
52105;BME280;38103;42.776;23.112;2023-02-22T01:21:48;93900.91;;;6.78;50.70
52105;BME280;38103;42.776;23.112;2023-02-22T01:24:15;93865.13;;;6.45;51.45
52105;BME280;38103;42.776;23.112;2023-02-22T01:26:50;93899.78;;;6.67;51.46
52105;BME280;38103;42.776;23.112;2023-02-22T01:29:17;93906.00;;;6.73;51.72
52105;BME280;38103;42.776;23.112;2023-02-22T01:31:50;93898.97;;;6.67;51.79
52105;BME280;38103;42.776;23.112;2023-02-22T01:34:17;93882.53;;;6.46;51.86
52105;BME280;38103;42.776;23.112;2023-02-22T01:36:42;93905.47;;;6.57;51.75
52105;BME280;38103;42.776;23.112;2023-02-22T01:39:08;93875.75;;;6.31;52.19
52105;BME280;38103;42.776;23.112;2023-02-22T01:41:35;93903.50;;;6.53;51.85
52105;BME280;38103;42.776;23.112;2023-02-22T01:44:27;93901.25;;;6.56;52.17
52105;BME280;38103;42.776;23.112;2023-02-22T01:46:54;93902.25;;;6.55;52.52
52105;BME280;38103;42.776;23.112;2023-02-22T01:49:21;93869.25;;;6.34;52.76
52105;BME280;38103;42.776;23.112;2023-02-22T01:51:49;93901.50;;;6.48;52.69
52105;BME280;38103;42.776;23.112;2023-02-22T01:59:26;93905.97;;;6.41;52.48
52105;BME280;38103;42.776;23.112;2023-02-22T02:01:53;93907.06;;;6.26;53.08
52105;BME280;38103;42.776;23.112;2023-02-22T02:04:20;93910.31;;;6.14;53.33
52105;BME280;38103;42.776;23.112;2023-02-22T02:06:51;93897.78;;;6.17;53.59
52105;BME280;38103;42.776;23.112;2023-02-22T02:11:43;93906.91;;;6.07;53.76
52105;BME280;38103;42.776;23.112;2023-02-22T02:14:09;93908.50;;;6.08;53.89
52105;BME280;38103;42.776;23.112;2023-02-22T02:16:43;93899.41;;;6.11;53.48
52105;BME280;38103;42.776;23.112;2023-02-22T02:19:18;93900.81;;;6.07;54.09
52105;BME280;38103;42.776;23.112;2023-02-22T02:30:48;93903.28;;;5.95;54.77
52105;BME280;38103;42.776;23.112;2023-02-22T02:41:07;93916.25;;;5.76;54.50
52105;BME280;38103;42.776;23.112;2023-02-22T02:46:25;93918.28;;;5.74;54.92
52105;BME280;38103;42.776;23.112;2023-02-22T02:48:57;93912.63;;;5.77;54.80
52105;BME280;38103;42.776;23.112;2023-02-22T02:51:27;93918.66;;;5.77;54.95
52105;BME280;38103;42.776;23.112;2023-02-22T02:53:54;93913.63;;;5.76;54.80
52105;BME280;38103;42.776;23.112;2023-02-22T02:56:21;93917.88;;;5.77;54.96
52105;BME280;38103;42.776;23.112;2023-02-22T02:58:52;93919.72;;;5.69;55.11
52105;BME280;38103;42.776;23.112;2023-02-22T03:01:38;93865.50;;;5.36;55.37
52105;BME280;38103;42.776;23.112;2023-02-22T03:13:27;93907.66;;;6.28;55.52
52105;BME280;38103;42.776;23.112;2023-02-22T03:18:55;93903.13;;;6.49;54.75
52105;BME280;38103;42.776;23.112;2023-02-22T03:21:44;93906.34;;;6.51;54.44
52105;BME280;38103;42.776;23.112;2023-02-22T03:24:26;93906.09;;;6.59;53.98
52105;BME280;38103;42.776;23.112;2023-02-22T03:26:56;93908.91;;;6.65;53.71
52105;BME280;38103;42.776;23.112;2023-02-22T03:29:23;93905.19;;;6.73;53.68
52105;BME280;38103;42.776;23.112;2023-02-22T03:31:55;93906.59;;;6.75;53.56
52105;BME280;38103;42.776;23.112;2023-02-22T03:34:31;93903.38;;;6.73;53.60
52105;BME280;38103;42.776;23.112;2023-02-22T03:37:10;93906.59;;;6.75;53.84
52105;BME280;38103;42.776;23.112;2023-02-22T03:39:39;93902.53;;;6.79;53.48
52105;BME280;38103;42.776;23.112;2023-02-22T03:42:09;93858.03;;;6.52;53.09
52105;BME280;38103;42.776;23.112;2023-02-22T03:44:39;93904.13;;;6.80;53.01
52105;BME280;38103;42.776;23.112;2023-02-22T03:47:09;93911.44;;;6.78;53.26
52105;BME280;38103;42.776;23.112;2023-02-22T03:49:41;93906.19;;;6.78;53.15
52105;BME280;38103;42.776;23.112;2023-02-22T03:52:07;93909.44;;;6.74;53.49
52105;BME280;38103;42.776;23.112;2023-02-22T03:54:33;93913.88;;;6.73;53.69
52105;BME280;38103;42.776;23.112;2023-02-22T03:57:07;93909.06;;;6.70;53.80
52105;BME280;38103;42.776;23.112;2023-02-22T03:59:35;93909.94;;;6.57;54.63
52105;BME280;38103;42.776;23.112;2023-02-22T04:02:00;93909.09;;;6.63;54.47
52105;BME280;38103;42.776;23.112;2023-02-22T04:04:26;93915.97;;;6.64;54.31
52105;BME280;38103;42.776;23.112;2023-02-22T04:06:51;93916.16;;;6.63;54.36
52105;BME280;38103;42.776;23.112;2023-02-22T04:09:17;93885.78;;;6.41;54.29
52105;BME280;38103;42.776;23.112;2023-02-22T04:11:44;93912.78;;;6.55;54.40
52105;BME280;38103;42.776;23.112;2023-02-22T04:14:09;93891.22;;;6.40;54.23
52105;BME280;38103;42.776;23.112;2023-02-22T04:16:35;93915.25;;;6.43;54.05
52105;BME280;38103;42.776;23.112;2023-02-22T04:19:00;93911.66;;;6.37;54.17
52105;BME280;38103;42.776;23.112;2023-02-22T04:21:26;93920.75;;;6.35;54.17
52105;BME280;38103;42.776;23.112;2023-02-22T04:23:51;93908.06;;;6.25;54.26
52105;BME280;38103;42.776;23.112;2023-02-22T04:26:17;93911.31;;;6.13;54.71
52105;BME280;38103;42.776;23.112;2023-02-22T04:28:42;93915.75;;;6.06;54.76
52105;BME280;38103;42.776;23.112;2023-02-22T04:31:08;93903.66;;;6.05;54.93
52105;BME280;38103;42.776;23.112;2023-02-22T04:33:33;93902.84;;;6.04;55.17
52105;BME280;38103;42.776;23.112;2023-02-22T04:35:58;93903.66;;;6.05;55.46
52105;BME280;38103;42.776;23.112;2023-02-22T04:38:24;93870.66;;;5.77;55.77
52105;BME280;38103;42.776;23.112;2023-02-22T04:40:51;93903.91;;;5.97;55.75
52105;BME280;38103;42.776;23.112;2023-02-22T04:43:16;93913.97;;;6.00;55.73
52105;BME280;38103;42.776;23.112;2023-02-22T04:45:42;93909.72;;;5.99;55.48
52105;BME280;38103;42.776;23.112;2023-02-22T04:48:07;93914.22;;;5.78;56.02
52105;BME280;38103;42.776;23.112;2023-02-22T04:50:33;93910.00;;;5.77;55.94
52105;BME280;38103;42.776;23.112;2023-02-22T04:52:58;93918.28;;;5.74;55.97
52105;BME280;38103;42.776;23.112;2023-02-22T04:55:24;93858.88;;;4.99;57.17
52105;BME280;38103;42.776;23.112;2023-02-22T04:57:49;93912.69;;;5.22;58.25
52105;BME280;38103;42.776;23.112;2023-02-22T05:00:17;93913.00;;;4.65;60.70
52105;BME280;38103;42.776;23.112;2023-02-22T05:02:43;93912.81;;;4.60;61.19
52105;BME280;38103;42.776;23.112;2023-02-22T05:05:09;93902.16;;;4.68;60.88
52105;BME280;38103;42.776;23.112;2023-02-22T05:07:35;93919.88;;;4.79;61.24
52105;BME280;38103;42.776;23.112;2023-02-22T05:10:00;93924.31;;;4.65;61.58
52105;BME280;38103;42.776;23.112;2023-02-22T05:12:27;93924.59;;;4.28;63.85
52105;BME280;38103;42.776;23.112;2023-02-22T05:14:52;93925.38;;;4.22;64.27
52105;BME280;38103;42.776;23.112;2023-02-22T05:17:18;93931.81;;;4.26;64.63
52105;BME280;38103;42.776;23.112;2023-02-22T05:19:43;93930.66;;;4.35;64.45
52105;BME280;38103;42.776;23.112;2023-02-22T05:22:08;93934.66;;;4.31;64.63
52105;BME280;38103;42.776;23.112;2023-02-22T05:24:34;93926.59;;;4.26;65.25
52105;BME280;38103;42.776;23.112;2023-02-22T05:26:59;93931.59;;;4.14;65.58
52105;BME280;38103;42.776;23.112;2023-02-22T05:29:25;93932.66;;;4.33;64.75
52105;BME280;38103;42.776;23.112;2023-02-22T05:31:50;93934.34;;;4.48;63.93
52105;BME280;38103;42.776;23.112;2023-02-22T05:34:15;93940.41;;;4.55;63.95
52105;BME280;38103;42.776;23.112;2023-02-22T05:36:41;93946.06;;;4.66;62.95
52105;BME280;38103;42.776;23.112;2023-02-22T05:39:06;93945.25;;;4.72;62.62
52105;BME280;38103;42.776;23.112;2023-02-22T05:41:32;93950.09;;;4.75;62.33
52105;BME280;38103;42.776;23.112;2023-02-22T05:43:58;93951.31;;;4.66;63.71
52105;BME280;38103;42.776;23.112;2023-02-22T05:46:24;93952.97;;;4.94;62.92
52105;BME280;38103;42.776;23.112;2023-02-22T05:48:49;93948.97;;;5.25;62.90
52105;BME280;38103;42.776;23.112;2023-02-22T05:51:15;93940.09;;;5.47;61.59
52105;BME280;38103;42.776;23.112;2023-02-22T05:53:40;93955.41;;;5.70;61.16
52105;BME280;38103;42.776;23.112;2023-02-22T05:56:06;93961.03;;;5.81;61.97
52105;BME280;38103;42.776;23.112;2023-02-22T05:58:32;93967.91;;;5.82;62.71
52105;BME280;38103;42.776;23.112;2023-02-22T06:00:57;93963.88;;;5.86;61.86
52105;BME280;38103;42.776;23.112;2023-02-22T06:03:23;93970.69;;;6.14;61.62
52105;BME280;38103;42.776;23.112;2023-02-22T06:05:48;93964.75;;;6.40;61.19
52105;BME280;38103;42.776;23.112;2023-02-22T06:08:14;93964.84;;;6.72;60.10
52105;BME280;38103;42.776;23.112;2023-02-22T06:10:39;93963.41;;;7.09;58.44
52105;BME280;38103;42.776;23.112;2023-02-22T06:13:05;93967.63;;;7.42;57.41
52105;BME280;38103;42.776;23.112;2023-02-22T06:15:30;93970.56;;;7.53;53.92
52105;BME280;38103;42.776;23.112;2023-02-22T06:17:57;93966.13;;;7.79;53.32
52105;BME280;38103;42.776;23.112;2023-02-22T06:20:25;93969.53;;;8.43;52.57
52105;BME280;38103;42.776;23.112;2023-02-22T06:22:52;93968.88;;;8.66;51.47
52105;BME280;38103;42.776;23.112;2023-02-22T06:25:21;93969.88;;;9.15;49.00
52105;BME280;38103;42.776;23.112;2023-02-22T06:27:48;93968.81;;;9.59;47.80
52105;BME280;38103;42.776;23.112;2023-02-22T06:30:15;93967.69;;;9.79;46.74
52105;BME280;38103;42.776;23.112;2023-02-22T06:32:41;93965.28;;;10.25;45.28
52105;BME280;38103;42.776;23.112;2023-02-22T06:35:07;93969.94;;;10.59;44.36
52105;BME280;38103;42.776;23.112;2023-02-22T06:37:33;93969.78;;;11.08;43.31
52105;BME280;38103;42.776;23.112;2023-02-22T06:39:58;93969.47;;;11.21;42.63
52105;BME280;38103;42.776;23.112;2023-02-22T06:42:24;93969.44;;;11.50;41.83
52105;BME280;38103;42.776;23.112;2023-02-22T06:44:49;93965.94;;;11.62;41.47
52105;BME280;38103;42.776;23.112;2023-02-22T06:47:14;93969.78;;;11.54;41.11
52105;BME280;38103;42.776;23.112;2023-02-22T06:49:40;93974.50;;;11.69;40.53
52105;BME280;38103;42.776;23.112;2023-02-22T06:52:07;93976.25;;;11.81;40.76
52105;BME280;38103;42.776;23.112;2023-02-22T06:54:33;93979.16;;;11.62;40.53
52105;BME280;38103;42.776;23.112;2023-02-22T06:56:58;93971.75;;;11.99;40.07
52105;BME280;38103;42.776;23.112;2023-02-22T06:59:24;93947.19;;;12.21;39.71
52105;BME280;38103;42.776;23.112;2023-02-22T07:01:49;93967.91;;;12.24;39.71
52105;BME280;38103;42.776;23.112;2023-02-22T07:04:15;93967.44;;;11.58;42.07
52105;BME280;38103;42.776;23.112;2023-02-22T07:06:47;93979.41;;;11.14;43.87
52105;BME280;38103;42.776;23.112;2023-02-22T07:09:14;93981.09;;;10.91;43.70
52105;BME280;38103;42.776;23.112;2023-02-22T07:11:40;93987.47;;;10.78;44.79
52105;BME280;38103;42.776;23.112;2023-02-22T07:14:06;93986.03;;;10.46;45.25
52105;BME280;38103;42.776;23.112;2023-02-22T07:16:31;93990.41;;;10.52;45.16
52105;BME280;38103;42.776;23.112;2023-02-22T07:18:58;93980.88;;;10.92;44.69
52105;BME280;38103;42.776;23.112;2023-02-22T07:21:24;93929.78;;;11.21;43.23
52105;BME280;38103;42.776;23.112;2023-02-22T07:23:51;93967.75;;;12.13;41.98
52105;BME280;38103;42.776;23.112;2023-02-22T07:26:17;93965.94;;;12.81;40.57
52105;BME280;38103;42.776;23.112;2023-02-22T07:28:43;93958.06;;;13.42;39.63
52105;BME280;38103;42.776;23.112;2023-02-22T07:31:08;93956.31;;;13.86;38.73
52105;BME280;38103;42.776;23.112;2023-02-22T07:33:33;93960.31;;;14.37;39.13
52105;BME280;38103;42.776;23.112;2023-02-22T07:35:59;93954.97;;;14.91;37.62
52105;BME280;38103;42.776;23.112;2023-02-22T07:38:24;93950.53;;;15.34;36.52
52105;BME280;38103;42.776;23.112;2023-02-22T07:40:50;93950.03;;;15.73;36.26
52105;BME280;38103;42.776;23.112;2023-02-22T07:43:22;93943.38;;;16.07;35.76
52105;BME280;38103;42.776;23.112;2023-02-22T07:45:50;93936.41;;;15.96;35.94
52105;BME280;38103;42.776;23.112;2023-02-22T07:48:17;93932.41;;;16.14;34.71
52105;BME280;38103;42.776;23.112;2023-02-22T07:50:43;93942.03;;;15.63;35.36
52105;BME280;38103;42.776;23.112;2023-02-22T07:53:16;93947.63;;;15.51;35.29
52105;BME280;38103;42.776;23.112;2023-02-22T07:55:42;93938.28;;;15.80;35.71
52105;BME280;38103;42.776;23.112;2023-02-22T07:58:08;93941.72;;;16.17;34.88
52105;BME280;38103;42.776;23.112;2023-02-22T08:00:35;93921.50;;;15.27;36.44
52105;BME280;38103;42.776;23.112;2023-02-22T08:03:03;93941.97;;;15.16;37.41
52105;BME280;38103;42.776;23.112;2023-02-22T08:05:29;93945.47;;;15.22;36.92
52105;BME280;38103;42.776;23.112;2023-02-22T08:07:55;93935.91;;;15.57;37.23
52105;BME280;38103;42.776;23.112;2023-02-22T08:10:22;93931.59;;;16.03;35.63
52105;BME280;38103;42.776;23.112;2023-02-22T08:12:48;93935.81;;;16.41;35.06
52105;BME280;38103;42.776;23.112;2023-02-22T08:15:21;93934.94;;;16.61;35.48
52105;BME280;38103;42.776;23.112;2023-02-22T08:17:48;93921.22;;;16.84;35.00
52105;BME280;38103;42.776;23.112;2023-02-22T08:20:14;93927.94;;;17.27;34.60
52105;BME280;38103;42.776;23.112;2023-02-22T08:22:42;93929.28;;;17.24;33.37
52105;BME280;38103;42.776;23.112;2023-02-22T08:25:08;93931.63;;;17.36;34.31
52105;BME280;38103;42.776;23.112;2023-02-22T08:27:33;93936.91;;;16.96;34.08
52105;BME280;38103;42.776;23.112;2023-02-22T08:29:59;93936.59;;;17.08;34.29
52105;BME280;38103;42.776;23.112;2023-02-22T08:32:24;93936.94;;;17.41;34.71
52105;BME280;38103;42.776;23.112;2023-02-22T08:34:49;93933.88;;;17.59;32.67
52105;BME280;38103;42.776;23.112;2023-02-22T08:37:16;93887.81;;;17.32;32.80
52105;BME280;38103;42.776;23.112;2023-02-22T08:39:42;93932.56;;;17.11;33.65
52105;BME280;38103;42.776;23.112;2023-02-22T08:42:07;93927.22;;;17.16;33.44
52105;BME280;38103;42.776;23.112;2023-02-22T08:44:34;93920.25;;;17.15;32.67
52105;BME280;38103;42.776;23.112;2023-02-22T08:46:59;93921.84;;;17.21;34.59
52105;BME280;38103;42.776;23.112;2023-02-22T08:49:25;93917.03;;;17.23;33.67
52105;BME280;38103;42.776;23.112;2023-02-22T08:51:50;93901.56;;;17.09;34.04
52105;BME280;38103;42.776;23.112;2023-02-22T08:54:15;93926.38;;;17.15;34.30
52105;BME280;38103;42.776;23.112;2023-02-22T08:56:42;93924.63;;;17.00;35.15
52105;BME280;38103;42.776;23.112;2023-02-22T08:59:08;93918.16;;;17.06;34.01
52105;BME280;38103;42.776;23.112;2023-02-22T09:01:33;93921.38;;;17.08;34.43
52105;BME280;38103;42.776;23.112;2023-02-22T09:03:59;93918.13;;;17.17;34.01
52105;BME280;38103;42.776;23.112;2023-02-22T09:06:24;93913.84;;;17.21;34.27
52105;BME280;38103;42.776;23.112;2023-02-22T09:08:50;93913.28;;;17.14;33.49
52105;BME280;38103;42.776;23.112;2023-02-22T09:11:15;93913.63;;;17.07;34.05
52105;BME280;38103;42.776;23.112;2023-02-22T09:13:41;93909.38;;;17.06;33.78
52105;BME280;38103;42.776;23.112;2023-02-22T09:16:06;93910.47;;;17.00;33.23
52105;BME280;38103;42.776;23.112;2023-02-22T09:18:31;93903.69;;;17.13;34.35
52105;BME280;38103;42.776;23.112;2023-02-22T09:20:57;93901.00;;;17.23;33.42
52105;BME280;38103;42.776;23.112;2023-02-22T09:23:23;93905.78;;;17.26;34.16
52105;BME280;38103;42.776;23.112;2023-02-22T09:25:50;93901.03;;;17.13;32.95
52105;BME280;38103;42.776;23.112;2023-02-22T09:28:15;93904.22;;;17.15;33.16
52105;BME280;38103;42.776;23.112;2023-02-22T09:30:41;93911.16;;;17.21;33.24
52105;BME280;38103;42.776;23.112;2023-02-22T09:33:15;93902.59;;;17.19;33.35
52105;BME280;38103;42.776;23.112;2023-02-22T09:35:42;93903.69;;;17.13;32.82
52105;BME280;38103;42.776;23.112;2023-02-22T09:38:20;93897.75;;;17.31;34.41
52105;BME280;38103;42.776;23.112;2023-02-22T09:41:14;93904.19;;;17.25;33.37
52105;BME280;38103;42.776;23.112;2023-02-22T09:43:50;93907.19;;;17.13;33.58
52105;BME280;38103;42.776;23.112;2023-02-22T09:46:29;93903.25;;;17.00;33.71
52105;BME280;38103;42.776;23.112;2023-02-22T09:49:19;93906.97;;;16.99;33.06
52105;BME280;38103;42.776;23.112;2023-02-22T09:52:12;93865.91;;;16.95;33.72
52105;BME280;38103;42.776;23.112;2023-02-22T09:54:45;93901.16;;;17.37;34.11
52105;BME280;38103;42.776;23.112;2023-02-22T09:57:20;93896.06;;;17.41;32.76
52105;BME280;38103;42.776;23.112;2023-02-22T10:05:42;93883.59;;;16.80;34.54
52105;BME280;38103;42.776;23.112;2023-02-22T10:08:13;93884.00;;;17.03;35.67
52105;BME280;38103;42.776;23.112;2023-02-22T10:10:41;93870.56;;;17.14;33.57
52105;BME280;38103;42.776;23.112;2023-02-22T10:15:45;93872.72;;;17.17;33.04
52105;BME280;38103;42.776;23.112;2023-02-22T10:26:19;93851.59;;;17.15;32.74
52105;BME280;38103;42.776;23.112;2023-02-22T10:31:30;93847.13;;;17.05;33.48
52105;BME280;38103;42.776;23.112;2023-02-22T10:34:00;93839.06;;;17.16;33.05
52105;BME280;38103;42.776;23.112;2023-02-22T10:36:26;93828.91;;;17.18;33.56
52105;BME280;38103;42.776;23.112;2023-02-22T10:39:24;93835.75;;;17.29;32.95
52105;BME280;38103;42.776;23.112;2023-02-22T10:41:55;93836.88;;;17.23;30.61
52105;BME280;38103;42.776;23.112;2023-02-22T10:44:21;93828.09;;;17.17;31.66
52105;BME280;38103;42.776;23.112;2023-02-22T10:46:47;93825.13;;;17.19;32.30
52105;BME280;38103;42.776;23.112;2023-02-22T10:49:19;93796.66;;;17.04;33.36
52105;BME280;38103;42.776;23.112;2023-02-22T10:51:49;93811.47;;;17.26;32.29
52105;BME280;38103;42.776;23.112;2023-02-22T10:54:25;93804.81;;;17.23;32.92
52105;BME280;38103;42.776;23.112;2023-02-22T10:56:54;93805.03;;;17.27;32.57
52105;BME280;38103;42.776;23.112;2023-02-22T10:59:31;93803.00;;;17.48;33.03
52105;BME280;38103;42.776;23.112;2023-02-22T11:01:58;93809.59;;;17.56;33.36
52105;BME280;38103;42.776;23.112;2023-02-22T11:04:23;93794.88;;;17.59;32.16
52105;BME280;38103;42.776;23.112;2023-02-22T11:09:23;93804.19;;;17.61;32.44
52105;BME280;38103;42.776;23.112;2023-02-22T11:12:05;93799.66;;;17.62;31.67
52105;BME280;38103;42.776;23.112;2023-02-22T11:14:31;93800.88;;;17.45;31.93
52105;BME280;38103;42.776;23.112;2023-02-22T11:16:58;93797.13;;;17.46;31.57
52105;BME280;38103;42.776;23.112;2023-02-22T11:19:27;93789.63;;;17.48;32.42
52105;BME280;38103;42.776;23.112;2023-02-22T11:22:18;93791.69;;;17.57;31.68
52105;BME280;38103;42.776;23.112;2023-02-22T11:25:04;93783.28;;;17.69;31.43
52105;BME280;38103;42.776;23.112;2023-02-22T11:32:45;93783.91;;;17.85;30.50
52105;BME280;38103;42.776;23.112;2023-02-22T11:35:29;93781.22;;;17.85;30.50
52105;BME280;38103;42.776;23.112;2023-02-22T11:38:16;93768.81;;;17.94;31.04
52105;BME280;38103;42.776;23.112;2023-02-22T11:40:43;93781.38;;;17.94;30.12
52105;BME280;38103;42.776;23.112;2023-02-22T11:43:19;93767.34;;;17.83;30.44
52105;BME280;38103;42.776;23.112;2023-02-22T11:46:00;93754.59;;;17.74;31.30
52105;BME280;38103;42.776;23.112;2023-02-22T11:48:32;93766.66;;;17.96;30.90
52105;BME280;38103;42.776;23.112;2023-02-22T11:51:14;93761.28;;;17.96;30.46
52105;BME280;38103;42.776;23.112;2023-02-22T11:54:11;93760.22;;;17.97;31.09
52105;BME280;38103;42.776;23.112;2023-02-22T11:56:50;93757.56;;;17.97;31.29
52105;BME280;38103;42.776;23.112;2023-02-22T11:59:50;93724.81;;;17.62;31.36
52105;BME280;38103;42.776;23.112;2023-02-22T12:13:21;93748.47;;;17.74;32.04
52105;BME280;38103;42.776;23.112;2023-02-22T12:16:03;93748.34;;;17.60;31.33
52105;BME280;38103;42.776;23.112;2023-02-22T12:21:06;93703.41;;;17.37;31.25
52105;BME280;38103;42.776;23.112;2023-02-22T12:26:25;93728.66;;;17.50;30.52
52105;BME280;38103;42.776;23.112;2023-02-22T12:28:56;93730.59;;;17.45;30.46
52105;BME280;38103;42.776;23.112;2023-02-22T12:31:32;93699.09;;;17.12;30.36
52105;BME280;38103;42.776;23.112;2023-02-22T12:36:52;93728.88;;;17.29;28.87
52105;BME280;38103;42.776;23.112;2023-02-22T12:42:16;93718.22;;;17.24;30.59
52105;BME280;38103;42.776;23.112;2023-02-22T12:44:49;93716.56;;;17.34;30.34
52105;BME280;38103;42.776;23.112;2023-02-22T12:47:22;93679.53;;;17.22;30.07
52105;BME280;38103;42.776;23.112;2023-02-22T12:50:26;93713.53;;;17.40;29.42
52105;BME280;38103;42.776;23.112;2023-02-22T12:52:58;93713.19;;;17.47;28.78
52105;BME280;38103;42.776;23.112;2023-02-22T12:55:41;93664.84;;;17.19;28.04
52105;BME280;38103;42.776;23.112;2023-02-22T13:00:59;93703.53;;;17.51;29.78
52105;BME280;38103;42.776;23.112;2023-02-22T13:03:40;93704.66;;;17.45;29.23
52105;BME280;38103;42.776;23.112;2023-02-22T13:08:37;93697.97;;;17.23;29.82
52105;BME280;38103;42.776;23.112;2023-02-22T13:13:51;93695.41;;;17.07;30.25
52105;BME280;38103;42.776;23.112;2023-02-22T13:20:13;93695.00;;;16.95;30.18
52105;BME280;38103;42.776;23.112;2023-02-22T13:22:39;93696.63;;;16.91;31.97
52105;BME280;38103;42.776;23.112;2023-02-22T13:27:54;93690.38;;;16.71;31.97
52105;BME280;38103;42.776;23.112;2023-02-22T13:30:38;93690.91;;;16.73;31.89
52105;BME280;38103;42.776;23.112;2023-02-22T13:36:30;93684.25;;;16.70;33.59
52105;BME280;38103;42.776;23.112;2023-02-22T13:52:45;93678.31;;;16.44;35.44
52105;BME280;38103;42.776;23.112;2023-02-22T13:55:21;93680.97;;;16.49;34.79
52105;BME280;38103;42.776;23.112;2023-02-22T13:57:59;93679.44;;;16.37;35.11
52105;BME280;38103;42.776;23.112;2023-02-22T14:00:47;93668.28;;;16.30;35.06
52105;BME280;38103;42.776;23.112;2023-02-22T14:08:06;93684.84;;;16.27;34.99
52105;BME280;38103;42.776;23.112;2023-02-22T14:10:54;93688.00;;;16.29;35.65
52105;BME280;38103;42.776;23.112;2023-02-22T14:13:24;93689.63;;;16.30;35.20
52105;BME280;38103;42.776;23.112;2023-02-22T14:18:23;93699.00;;;16.22;35.46
52105;BME280;38103;42.776;23.112;2023-02-22T14:21:10;93691.09;;;16.06;36.03
52105;BME280;38103;42.776;23.112;2023-02-22T14:23:41;93697.22;;;16.07;35.41
52105;BME280;38103;42.776;23.112;2023-02-22T14:26:26;93686.59;;;15.96;35.83
52105;BME280;38103;42.776;23.112;2023-02-22T14:34:04;93693.53;;;15.97;36.90
52105;BME280;38103;42.776;23.112;2023-02-22T14:36:34;93698.09;;;15.92;36.49
52105;BME280;38103;42.776;23.112;2023-02-22T14:41:50;93691.47;;;15.84;36.79
52105;BME280;38103;42.776;23.112;2023-02-22T14:44:25;93693.06;;;15.80;36.85
52105;BME280;38103;42.776;23.112;2023-02-22T14:46:55;93690.47;;;15.69;37.06
52105;BME280;38103;42.776;23.112;2023-02-22T14:49:29;93695.84;;;15.59;37.11
52105;BME280;38103;42.776;23.112;2023-02-22T14:51:59;93695.84;;;15.53;37.55
52105;BME280;38103;42.776;23.112;2023-02-22T14:54:32;93690.53;;;15.53;37.64
52105;BME280;38103;42.776;23.112;2023-02-22T14:57:19;93683.28;;;15.59;37.08
52105;BME280;38103;42.776;23.112;2023-02-22T14:59:58;93690.25;;;15.50;37.81
52105;BME280;38103;42.776;23.112;2023-02-22T15:02:26;93688.94;;;15.42;38.13
52105;BME280;38103;42.776;23.112;2023-02-22T15:04:53;93692.69;;;15.41;38.19
52105;BME280;38103;42.776;23.112;2023-02-22T15:07:28;93690.00;;;15.46;38.09
52105;BME280;38103;42.776;23.112;2023-02-22T15:12:41;93689.78;;;15.32;38.11
52105;BME280;38103;42.776;23.112;2023-02-22T15:15:20;93696.47;;;15.19;39.08
52105;BME280;38103;42.776;23.112;2023-02-22T15:17:52;93698.09;;;15.20;38.85
52105;BME280;38103;42.776;23.112;2023-02-22T15:20:18;93682.13;;;15.10;38.77
52105;BME280;38103;42.776;23.112;2023-02-22T15:22:46;93697.53;;;15.13;38.85
52105;BME280;38103;42.776;23.112;2023-02-22T15:25:13;93692.22;;;15.13;38.56